Time;durP1;ratioP1;P1;durP2;ratioP2;P2;SDS_P1;SDS_P2;PMS_P1;PMS_P2;Temp;Humidity;BMP_temperature;BMP_pressure;BME280_temperature;BME280_humidity;BME280_pressure;Samples;Min_cycle;Max_cycle;Signal;HPM_P1;HPM_P2
2021/05/12 00:01:13;;;;;;;8.30;7.40;;;;;;;;;;5006627;28;20193;-79
2021/05/12 00:03:39;;;;;;;8.63;7.83;;;;;;;;;;5014466;28;20633;-79
2021/05/12 00:06:06;;;;;;;9.17;8.23;;;;;;;;;;5030965;28;20197;-79
2021/05/12 00:08:32;;;;;;;8.60;7.03;;;;;;;;;;5004656;28;20591;-78
2021/05/12 00:10:58;;;;;;;8.53;7.67;;;;;;;;;;5017914;28;20635;-79
2021/05/12 00:13:24;;;;;;;8.93;8.00;;;;;;;;;;5015991;28;20181;-79
2021/05/12 00:15:51;;;;;;;9.47;8.40;;;;;;;;;;5031511;28;20265;-79
2021/05/12 00:18:22;;;;;;;9.63;8.47;;;;;;;;;;5020417;28;20191;-79
2021/05/12 00:20:48;;;;;;;9.00;8.17;;;;;;;;;;5030808;28;20170;-79
2021/05/12 00:23:25;;;;;;;8.93;8.13;;;;;;;;;;5022286;28;20196;-81
2021/05/12 00:25:51;;;;;;;10.80;8.90;;;;;;;;;;5010652;28;20193;-79
2021/05/12 00:28:17;;;;;;;9.73;8.83;;;;;;;;;;5005312;28;20185;-79
2021/05/12 00:30:43;;;;;;;8.53;7.80;;;;;;;;;;5030940;28;20185;-79
2021/05/12 00:33:11;;;;;;;9.40;8.50;;;;;;;;;;5029829;28;20166;-80
2021/05/12 00:35:37;;;;;;;9.27;8.30;;;;;;;;;;5022450;28;20236;-79
2021/05/12 00:38:03;;;;;;;8.53;7.73;;;;;;;;;;5025619;28;20173;-79
2021/05/12 00:40:29;;;;;;;9.57;8.57;;;;;;;;;;5014722;28;20233;-79
2021/05/12 00:42:55;;;;;;;9.53;8.47;;;;;;;;;;5033883;28;20223;-79
2021/05/12 00:45:22;;;;;;;10.27;9.27;;;;;;;;;;5037282;28;20194;-79
2021/05/12 00:47:48;;;;;;;9.20;8.30;;;;;;;;;;5029468;28;20247;-79
2021/05/12 00:50:15;;;;;;;11.20;10.10;;;;;;;;;;5023556;28;20609;-78
2021/05/12 00:52:41;;;;;;;10.73;9.43;;;;;;;;;;5018638;28;20628;-79
2021/05/12 00:55:07;;;;;;;10.23;9.23;;;;;;;;;;5029627;28;20186;-79
2021/05/12 00:57:35;;;;;;;12.37;9.63;;;;;;;;;;5030527;28;20240;-79
2021/05/12 01:00:01;;;;;;;11.03;9.90;;;;;;;;;;5024606;28;20228;-79
2021/05/12 01:02:27;;;;;;;12.40;10.83;;;;;;;;;;5025691;28;20273;-79
2021/05/12 01:04:53;;;;;;;11.43;10.10;;;;;;;;;;5025016;28;20175;-79
2021/05/12 01:07:19;;;;;;;11.10;10.00;;;;;;;;;;5028237;28;20613;-79
2021/05/12 01:09:46;;;;;;;12.03;10.93;;;;;;;;;;5027267;28;20189;-79
2021/05/12 01:12:12;;;;;;;11.17;10.03;;;;;;;;;;5025170;28;20197;-79
2021/05/12 01:14:38;;;;;;;11.70;10.60;;;;;;;;;;5032185;28;20575;-80
2021/05/12 01:17:04;;;;;;;11.83;10.63;;;;;;;;;;5031127;28;20239;-79
2021/05/12 01:19:30;;;;;;;10.67;9.57;;;;;;;;;;5014708;28;20231;-79
2021/05/12 01:21:57;;;;;;;11.80;10.60;;;;;;;;;;5025207;28;20178;-79
2021/05/12 01:24:23;;;;;;;12.00;10.73;;;;;;;;;;5014986;28;20185;-79
2021/05/12 01:26:49;;;;;;;10.83;9.83;;;;;;;;;;5012070;28;20261;-80
2021/05/12 01:29:15;;;;;;;11.60;10.50;;;;;;;;;;5028996;28;20456;-80
2021/05/12 01:31:43;;;;;;;11.83;10.63;;;;;;;;;;5022837;28;20743;-79
2021/05/12 01:34:13;;;;;;;12.80;11.47;;;;;;;;;;5018940;28;20184;-79
2021/05/12 01:36:39;;;;;;;11.33;10.13;;;;;;;;;;5029119;28;20219;-79
2021/05/12 01:39:06;;;;;;;11.60;10.50;;;;;;;;;;5022102;28;20194;-79
2021/05/12 01:41:32;;;;;;;11.30;10.10;;;;;;;;;;5007583;28;20171;-79
2021/05/12 01:43:58;;;;;;;11.27;9.13;;;;;;;;;;5012955;28;20285;-79
2021/05/12 01:46:24;;;;;;;12.10;10.90;;;;;;;;;;5014604;28;20511;-79
2021/05/12 01:48:50;;;;;;;12.40;10.30;;;;;;;;;;5002778;28;20185;-79
2021/05/12 01:51:17;;;;;;;15.13;10.50;;;;;;;;;;5028102;28;20601;-79
2021/05/12 01:53:43;;;;;;;9.93;9.00;;;;;;;;;;5012421;28;20285;-80
2021/05/12 01:56:10;;;;;;;11.47;10.43;;;;;;;;;;5024589;28;20208;-79
2021/05/12 01:58:36;;;;;;;11.77;9.70;;;;;;;;;;5018089;28;20225;-80
2021/05/12 02:01:03;;;;;;;12.13;10.17;;;;;;;;;;5024220;28;20185;-79
2021/05/12 02:03:29;;;;;;;12.27;9.70;;;;;;;;;;5028865;28;20208;-79
2021/05/12 02:05:55;;;;;;;11.13;10.03;;;;;;;;;;5013304;28;20185;-79
2021/05/12 02:08:22;;;;;;;10.57;9.30;;;;;;;;;;5030186;28;20209;-79
2021/05/12 02:10:50;;;;;;;10.43;9.43;;;;;;;;;;5027473;28;20171;-79
2021/05/12 02:13:16;;;;;;;11.10;9.17;;;;;;;;;;5015208;28;20589;-79
2021/05/12 02:15:43;;;;;;;13.47;9.87;;;;;;;;;;5014658;28;20521;-78
2021/05/12 02:18:09;;;;;;;11.53;9.93;;;;;;;;;;5031328;28;20184;-79
2021/05/12 02:20:36;;;;;;;11.63;9.50;;;;;;;;;;5025209;28;20273;-79
2021/05/12 02:23:03;;;;;;;12.37;10.20;;;;;;;;;;5034152;28;20599;-80
2021/05/12 02:25:29;;;;;;;10.73;9.00;;;;;;;;;;5031641;28;20256;-79
2021/05/12 02:27:56;;;;;;;12.83;10.93;;;;;;;;;;5035089;28;20174;-79
2021/05/12 02:30:22;;;;;;;11.07;8.90;;;;;;;;;;5022996;28;20178;-79
2021/05/12 02:32:49;;;;;;;10.87;9.73;;;;;;;;;;5034388;28;20193;-78
2021/05/12 02:35:15;;;;;;;10.50;9.40;;;;;;;;;;5015088;28;20185;-80
2021/05/12 02:37:41;;;;;;;12.17;10.13;;;;;;;;;;5015715;28;20218;-79
2021/05/12 02:40:09;;;;;;;10.37;9.33;;;;;;;;;;5015205;28;20282;-79
2021/05/12 02:42:35;;;;;;;9.50;8.37;;;;;;;;;;5022772;28;20208;-78
2021/05/12 02:45:01;;;;;;;10.03;9.03;;;;;;;;;;5030591;28;20209;-78
2021/05/12 02:47:27;;;;;;;12.13;9.53;;;;;;;;;;5030292;28;20195;-78
2021/05/12 02:49:53;;;;;;;9.90;8.90;;;;;;;;;;5031888;28;20189;-79
2021/05/12 02:52:19;;;;;;;11.67;9.00;;;;;;;;;;5021418;28;20194;-79
2021/05/12 02:54:45;;;;;;;10.57;9.10;;;;;;;;;;5001281;28;20443;-78
2021/05/12 02:57:12;;;;;;;10.47;9.30;;;;;;;;;;5014793;28;20185;-80
2021/05/12 02:59:38;;;;;;;10.67;9.03;;;;;;;;;;5020275;28;20205;-78
2021/05/12 03:02:04;;;;;;;11.63;9.57;;;;;;;;;;5036787;28;20209;-78
2021/05/12 03:04:30;;;;;;;13.40;9.73;;;;;;;;;;5014764;28;20189;-78
2021/05/12 03:06:56;;;;;;;11.50;9.33;;;;;;;;;;5029798;28;20178;-78
2021/05/12 03:09:22;;;;;;;10.87;9.27;;;;;;;;;;5022341;28;20194;-78
2021/05/12 03:11:48;;;;;;;11.13;9.57;;;;;;;;;;5031856;28;20260;-78
2021/05/12 03:14:15;;;;;;;12.43;9.50;;;;;;;;;;5030064;28;20178;-79
2021/05/12 03:16:41;;;;;;;11.30;9.07;;;;;;;;;;5027353;28;20182;-79
2021/05/12 03:19:07;;;;;;;9.57;8.60;;;;;;;;;;5017697;28;20212;-79
2021/05/12 03:21:34;;;;;;;11.60;8.20;;;;;;;;;;5026347;28;20178;-79
2021/05/12 03:24:03;;;;;;;10.70;8.33;;;;;;;;;;5016773;28;20248;-79
2021/05/12 03:26:29;;;;;;;11.43;9.27;;;;;;;;;;5028474;28;20174;-78
2021/05/12 03:28:55;;;;;;;9.60;8.60;;;;;;;;;;5022417;28;20182;-80
2021/05/12 03:31:21;;;;;;;10.83;8.90;;;;;;;;;;5012111;28;20272;-79
2021/05/12 03:33:47;;;;;;;9.77;8.77;;;;;;;;;;5015339;28;20217;-79
2021/05/12 03:36:13;;;;;;;11.97;9.50;;;;;;;;;;5021104;28;20227;-78
2021/05/12 03:38:40;;;;;;;10.60;9.13;;;;;;;;;;5012368;28;20678;-78
2021/05/12 03:41:06;;;;;;;10.43;9.37;;;;;;;;;;5031369;28;20756;-78
2021/05/12 03:43:34;;;;;;;10.27;8.83;;;;;;;;;;5013117;28;20274;-78
2021/05/12 03:46:00;;;;;;;10.23;8.70;;;;;;;;;;5030770;28;20207;-78
2021/05/12 03:48:26;;;;;;;11.93;9.07;;;;;;;;;;5027055;28;20328;-78
2021/05/12 03:50:52;;;;;;;10.10;9.00;;;;;;;;;;5027493;28;20373;-78
2021/05/12 03:53:18;;;;;;;10.57;9.17;;;;;;;;;;5015146;28;20729;-78
2021/05/12 03:55:44;;;;;;;12.70;8.93;;;;;;;;;;5027179;28;20194;-78
2021/05/12 03:58:10;;;;;;;10.97;8.73;;;;;;;;;;5027397;28;20179;-80
2021/05/12 04:00:36;;;;;;;10.43;8.07;;;;;;;;;;5036388;28;21111;-80
2021/05/12 04:03:02;;;;;;;12.90;9.20;;;;;;;;;;5014241;28;20720;-79
2021/05/12 04:05:28;;;;;;;11.57;8.63;;;;;;;;;;5028323;28;20186;-79
2021/05/12 04:07:54;;;;;;;9.70;8.57;;;;;;;;;;5021384;28;20188;-79
2021/05/12 04:10:21;;;;;;;9.27;7.87;;;;;;;;;;5023299;28;20189;-79
2021/05/12 04:12:47;;;;;;;9.03;7.97;;;;;;;;;;5030777;28;20185;-79
2021/05/12 04:15:14;;;;;;;8.70;7.80;;;;;;;;;;5029898;28;20685;-79
2021/05/12 04:17:40;;;;;;;10.83;8.53;;;;;;;;;;5036146;28;20203;-79
2021/05/12 04:20:07;;;;;;;9.63;8.20;;;;;;;;;;5011140;28;20201;-79
2021/05/12 04:22:34;;;;;;;8.60;7.67;;;;;;;;;;5013533;28;20200;-79
2021/05/12 04:25:00;;;;;;;8.53;7.70;;;;;;;;;;5023421;28;20216;-79
2021/05/12 04:27:26;;;;;;;11.97;9.20;;;;;;;;;;5023491;28;20190;-79
2021/05/12 04:29:52;;;;;;;9.40;8.10;;;;;;;;;;5013860;28;20193;-79
2021/05/12 04:32:18;;;;;;;9.10;7.73;;;;;;;;;;5011111;28;20174;-79
2021/05/12 04:34:46;;;;;;;9.60;8.27;;;;;;;;;;5024504;28;20284;-79
2021/05/12 04:37:12;;;;;;;9.82;8.82;;;;;;;;;;5020953;28;20440;-79
2021/05/12 04:39:38;;;;;;;8.53;7.70;;;;;;;;;;5025201;28;20210;-78
2021/05/12 04:42:04;;;;;;;9.43;7.80;;;;;;;;;;5015241;28;20206;-79
2021/05/12 04:44:30;;;;;;;9.43;7.97;;;;;;;;;;5014570;28;20680;-79
2021/05/12 04:46:56;;;;;;;8.60;7.70;;;;;;;;;;5010637;28;20189;-78
2021/05/12 04:49:22;;;;;;;9.23;7.43;;;;;;;;;;5035201;28;20515;-78
2021/05/12 04:51:49;;;;;;;9.50;7.23;;;;;;;;;;5031114;28;20228;-79
2021/05/12 04:54:15;;;;;;;8.80;7.60;;;;;;;;;;5016034;28;20186;-79
2021/05/12 04:56:42;;;;;;;11.10;7.97;;;;;;;;;;5031690;28;20209;-78
2021/05/12 04:59:08;;;;;;;9.10;7.27;;;;;;;;;;5031774;28;20201;-79
2021/05/12 05:01:34;;;;;;;8.70;7.23;;;;;;;;;;5013456;28;20182;-79
2021/05/12 05:04:01;;;;;;;7.77;7.07;;;;;;;;;;5023111;28;20183;-79
2021/05/12 05:06:28;;;;;;;8.17;7.03;;;;;;;;;;5024489;28;20534;-79
2021/05/12 05:08:54;;;;;;;7.50;6.80;;;;;;;;;;5026359;28;20272;-79
2021/05/12 05:11:20;;;;;;;8.37;7.23;;;;;;;;;;5012208;28;20677;-79
2021/05/12 05:13:46;;;;;;;10.13;7.63;;;;;;;;;;5013962;28;20194;-80
2021/05/12 05:16:12;;;;;;;8.10;7.30;;;;;;;;;;5023383;28;20190;-79
2021/05/12 05:18:39;;;;;;;8.70;7.07;;;;;;;;;;5014873;28;20546;-79
2021/05/12 05:21:06;;;;;;;7.77;7.07;;;;;;;;;;5021186;28;20260;-79
2021/05/12 05:23:36;;;;;;;6.87;6.17;;;;;;;;;;5026863;28;20291;-80
2021/05/12 05:26:02;;;;;;;8.83;7.27;;;;;;;;;;5030830;28;20189;-80
2021/05/12 05:28:28;;;;;;;8.17;7.20;;;;;;;;;;5017265;28;20181;-79
2021/05/12 05:30:55;;;;;;;9.50;7.30;;;;;;;;;;5031915;28;20186;-82
2021/05/12 05:33:21;;;;;;;9.27;8.10;;;;;;;;;;5030522;28;20185;-81
2021/05/12 05:35:47;;;;;;;16.53;12.07;;;;;;;;;;5026152;28;20764;-80
2021/05/12 05:38:13;;;;;;;17.53;10.63;;;;;;;;;;5016461;28;20182;-81
2021/05/12 05:40:39;;;;;;;10.90;9.53;;;;;;;;;;5006938;28;20216;-80
2021/05/12 05:43:09;;;;;;;10.47;9.47;;;;;;;;;;5026888;28;20204;-80
2021/05/12 05:45:35;;;;;;;12.57;9.33;;;;;;;;;;5021162;28;20208;-79
2021/05/12 05:48:01;;;;;;;11.97;9.93;;;;;;;;;;5009487;28;20646;-79
2021/05/12 05:50:27;;;;;;;15.00;8.90;;;;;;;;;;5025519;28;20235;-80
2021/05/12 05:52:54;;;;;;;11.93;9.43;;;;;;;;;;5009208;28;20186;-80
2021/05/12 05:55:21;;;;;;;9.67;8.67;;;;;;;;;;5012283;28;20197;-79
2021/05/12 05:57:50;;;;;;;13.20;8.70;;;;;;;;;;5032302;28;20186;-80
2021/05/12 06:00:17;;;;;;;10.80;8.00;;;;;;;;;;5025349;28;20199;-80
2021/05/12 06:02:43;;;;;;;10.07;7.13;;;;;;;;;;5010198;28;20281;-80
2021/05/12 06:05:10;;;;;;;11.13;7.97;;;;;;;;;;5026071;28;20520;-80
2021/05/12 06:07:38;;;;;;;8.90;8.00;;;;;;;;;;5021760;28;20192;-79
2021/05/12 06:10:04;;;;;;;10.07;7.70;;;;;;;;;;5031504;28;20196;-80
2021/05/12 06:12:30;;;;;;;9.40;6.93;;;;;;;;;;5031125;28;20196;-80
2021/05/12 06:14:56;;;;;;;8.90;6.93;;;;;;;;;;5031605;28;20217;-80
2021/05/12 06:17:22;;;;;;;8.90;7.93;;;;;;;;;;5014603;28;20264;-81
2021/05/12 06:19:48;;;;;;;8.27;6.53;;;;;;;;;;5014107;28;20197;-80
2021/05/12 06:22:15;;;;;;;7.87;6.97;;;;;;;;;;5014690;28;20494;-80
2021/05/12 06:24:41;;;;;;;7.30;6.40;;;;;;;;;;5022039;28;20268;-81
2021/05/12 06:27:09;;;;;;;10.83;6.73;;;;;;;;;;5020592;28;20301;-80
2021/05/12 06:29:36;;;;;;;6.57;5.93;;;;;;;;;;5015881;28;20190;-80
2021/05/12 06:32:03;;;;;;;6.90;6.20;;;;;;;;;;5025798;28;20190;-81
2021/05/12 06:34:31;;;;;;;8.70;6.43;;;;;;;;;;5019737;28;20240;-81
2021/05/12 06:36:57;;;;;;;10.93;7.57;;;;;;;;;;5027668;28;20237;-81
2021/05/12 06:39:23;;;;;;;9.13;7.23;;;;;;;;;;5007546;28;20290;-82
2021/05/12 06:41:50;;;;;;;7.53;5.93;;;;;;;;;;5020311;28;20200;-81
2021/05/12 06:44:16;;;;;;;8.20;7.37;;;;;;;;;;5011859;28;20230;-81
2021/05/12 06:46:42;;;;;;;8.07;7.20;;;;;;;;;;5013041;28;20197;-81
2021/05/12 06:49:08;;;;;;;9.50;6.77;;;;;;;;;;5018766;28;20251;-82
2021/05/12 06:51:34;;;;;;;8.57;6.97;;;;;;;;;;5014422;28;20193;-81
2021/05/12 06:54:00;;;;;;;11.30;7.67;;;;;;;;;;5009972;28;20186;-81
2021/05/12 06:56:26;;;;;;;11.53;8.03;;;;;;;;;;5011546;28;20178;-81
2021/05/12 06:58:52;;;;;;;7.67;6.87;;;;;;;;;;5016662;28;20529;-81
2021/05/12 07:01:20;;;;;;;8.43;7.33;;;;;;;;;;5030003;28;20563;-81
2021/05/12 07:03:46;;;;;;;9.67;7.03;;;;;;;;;;5017865;28;20186;-81
2021/05/12 07:06:12;;;;;;;9.60;7.10;;;;;;;;;;5013274;28;20597;-80
2021/05/12 07:08:38;;;;;;;8.70;6.63;;;;;;;;;;5022283;28;20257;-80
2021/05/12 07:11:10;;;;;;;9.97;7.03;;;;;;;;;;5033342;28;20280;-80
2021/05/12 07:13:36;;;;;;;6.80;6.07;;;;;;;;;;5032238;28;20197;-80
2021/05/12 07:16:04;;;;;;;9.30;6.80;;;;;;;;;;5016492;28;20292;-81
2021/05/12 07:18:32;;;;;;;7.90;6.17;;;;;;;;;;5026776;28;20422;-81
2021/05/12 07:20:58;;;;;;;10.03;7.60;;;;;;;;;;5033025;28;20256;-81
2021/05/12 07:23:26;;;;;;;10.00;6.37;;;;;;;;;;5029094;28;20170;-81
2021/05/12 07:25:55;;;;;;;9.67;7.10;;;;;;;;;;5018930;28;20287;-81
2021/05/12 07:28:21;;;;;;;9.53;7.13;;;;;;;;;;5014607;28;20568;-80
2021/05/12 07:30:47;;;;;;;9.63;7.20;;;;;;;;;;5023223;28;20182;-80
2021/05/12 07:33:13;;;;;;;7.87;6.53;;;;;;;;;;5015298;28;20188;-81
2021/05/12 07:35:39;;;;;;;8.13;6.40;;;;;;;;;;5011670;28;20233;-81
2021/05/12 07:38:06;;;;;;;7.80;7.00;;;;;;;;;;5020511;28;20533;-80
2021/05/12 07:40:34;;;;;;;7.63;6.77;;;;;;;;;;5013662;28;20271;-80
2021/05/12 07:43:06;;;;;;;8.20;6.87;;;;;;;;;;5032279;28;20296;-81
2021/05/12 07:45:32;;;;;;;11.23;7.53;;;;;;;;;;5020671;28;20201;-81
2021/05/12 07:47:58;;;;;;;7.67;6.23;;;;;;;;;;5033439;28;20185;-81
2021/05/12 07:50:25;;;;;;;8.80;6.20;;;;;;;;;;5029411;28;20589;-81
2021/05/12 07:52:51;;;;;;;10.43;7.10;;;;;;;;;;5028649;28;20181;-81
2021/05/12 07:55:17;;;;;;;10.30;7.57;;;;;;;;;;5014085;28;20189;-80
2021/05/12 07:57:43;;;;;;;10.73;7.30;;;;;;;;;;5032747;28;20208;-80
2021/05/12 08:00:10;;;;;;;8.53;7.40;;;;;;;;;;5017917;28;20202;-81
2021/05/12 08:02:36;;;;;;;7.87;6.90;;;;;;;;;;5028312;28;20640;-85
2021/05/12 08:05:03;;;;;;;14.13;7.57;;;;;;;;;;5015934;28;20174;-84
2021/05/12 08:07:31;;;;;;;9.57;7.67;;;;;;;;;;5029216;28;20255;-84
2021/05/12 08:09:57;;;;;;;12.43;7.30;;;;;;;;;;5014435;28;20189;-86
2021/05/12 08:12:23;;;;;;;8.80;7.70;;;;;;;;;;5004255;28;20258;-85
2021/05/12 08:14:49;;;;;;;9.30;7.63;;;;;;;;;;5025844;28;20184;-81
2021/05/12 08:17:15;;;;;;;10.67;8.03;;;;;;;;;;5012565;28;20196;-80
2021/05/12 08:19:41;;;;;;;9.23;7.40;;;;;;;;;;5026568;28;20261;-80
2021/05/12 08:22:08;;;;;;;9.43;7.40;;;;;;;;;;5015187;28;20189;-80
2021/05/12 08:24:34;;;;;;;8.43;7.00;;;;;;;;;;5016143;28;20170;-81
2021/05/12 08:27:05;;;;;;;11.18;9.43;;;;;;;;;;5004564;28;20443;-80
2021/05/12 08:29:31;;;;;;;9.03;7.30;;;;;;;;;;5019763;28;20181;-80
2021/05/12 08:31:58;;;;;;;12.50;8.17;;;;;;;;;;5024922;28;20768;-80
2021/05/12 08:34:24;;;;;;;11.80;7.33;;;;;;;;;;5033781;28;20185;-79
2021/05/12 08:36:50;;;;;;;6.97;6.17;;;;;;;;;;5027079;28;20229;-79
2021/05/12 08:39:16;;;;;;;11.70;8.00;;;;;;;;;;5009783;28;20610;-79
2021/05/12 08:41:42;;;;;;;10.73;7.57;;;;;;;;;;5003920;28;20174;-80
2021/05/12 08:44:12;;;;;;;10.10;8.00;;;;;;;;;;5013842;28;20340;-79
2021/05/12 08:46:39;;;;;;;8.23;7.30;;;;;;;;;;5016542;28;20539;-80
2021/05/12 08:49:06;;;;;;;8.87;8.00;;;;;;;;;;5005261;28;20199;-79
2021/05/12 08:51:32;;;;;;;8.40;7.33;;;;;;;;;;5010692;28;20194;-79
2021/05/12 08:53:58;;;;;;;10.07;7.83;;;;;;;;;;5008444;28;20263;-79
2021/05/12 08:56:24;;;;;;;9.80;8.20;;;;;;;;;;5005484;28;20187;-79
2021/05/12 08:58:50;;;;;;;9.97;8.77;;;;;;;;;;5009887;28;20663;-79
2021/05/12 09:01:17;;;;;;;10.33;9.33;;;;;;;;;;5011070;28;20173;-79
2021/05/12 09:03:44;;;;;;;10.23;8.30;;;;;;;;;;5010831;28;20664;-79
2021/05/12 09:06:11;;;;;;;11.87;9.97;;;;;;;;;;5011597;28;20503;-78
2021/05/12 09:08:37;;;;;;;9.97;8.77;;;;;;;;;;5009639;28;20209;-78
2021/05/12 09:11:03;;;;;;;9.40;8.50;;;;;;;;;;5008924;28;20171;-81
2021/05/12 09:13:29;;;;;;;10.37;9.07;;;;;;;;;;5003300;28;20179;-80
2021/05/12 09:15:57;;;;;;;11.87;9.03;;;;;;;;;;5010689;28;20268;-82
2021/05/12 09:18:32;;;;;;;10.23;8.77;;;;;;;;;;5011559;28;20175;-82
2021/05/12 09:20:58;;;;;;;10.97;7.80;;;;;;;;;;5010765;28;20189;-82
2021/05/12 09:23:28;;;;;;;9.23;8.33;;;;;;;;;;5008755;28;20463;-81
2021/05/12 09:25:55;;;;;;;10.37;8.40;;;;;;;;;;5005711;28;20571;-81
2021/05/12 09:28:22;;;;;;;9.50;8.60;;;;;;;;;;5025217;28;20742;-81
2021/05/12 09:30:49;;;;;;;10.57;9.03;;;;;;;;;;5011629;28;20664;-82
2021/05/12 09:33:34;;;;;;;9.40;8.33;;;;;;;;;;4997772;28;20178;-82
2021/05/12 09:36:01;;;;;;;9.33;8.53;;;;;;;;;;5022609;28;20220;-82
2021/05/12 09:38:28;;;;;;;13.00;8.97;;;;;;;;;;5009840;28;20178;-84
2021/05/12 09:41:01;;;;;;;9.97;8.87;;;;;;;;;;5022111;28;20213;-83
2021/05/12 09:43:28;;;;;;;10.90;9.80;;;;;;;;;;5002619;28;20261;-83
2021/05/12 09:45:54;;;;;;;11.47;9.63;;;;;;;;;;5009756;28;20790;-83
2021/05/12 09:48:20;;;;;;;10.67;9.27;;;;;;;;;;5015881;28;20205;-81
2021/05/12 09:50:46;;;;;;;9.83;8.93;;;;;;;;;;5032440;28;20173;-81
2021/05/12 09:53:13;;;;;;;13.03;9.57;;;;;;;;;;5011338;28;20182;-81
2021/05/12 09:55:47;;;;;;;13.07;8.67;;;;;;;;;;5009078;28;20273;-81
2021/05/12 09:58:23;;;;;;;10.87;9.10;;;;;;;;;;5025445;28;20237;-80
2021/05/12 10:00:51;;;;;;;9.57;8.67;;;;;;;;;;5009717;28;20205;-80
2021/05/12 10:03:22;;;;;;;10.00;9.10;;;;;;;;;;5024958;28;20261;-80
2021/05/12 10:05:51;;;;;;;9.07;7.63;;;;;;;;;;5003377;28;20167;-81
2021/05/12 10:08:21;;;;;;;8.37;7.53;;;;;;;;;;5027134;28;20666;-80
2021/05/12 10:10:47;;;;;;;8.30;7.60;;;;;;;;;;5005885;28;20586;-80
2021/05/12 10:13:13;;;;;;;8.03;7.17;;;;;;;;;;5012461;28;20299;-80
2021/05/12 10:15:39;;;;;;;7.43;6.63;;;;;;;;;;5006562;28;20210;-80
2021/05/12 10:18:08;;;;;;;10.70;7.50;;;;;;;;;;5012029;28;20190;-81
2021/05/12 10:20:35;;;;;;;8.27;6.37;;;;;;;;;;5009805;28;20264;-79
2021/05/12 10:23:01;;;;;;;6.67;6.10;;;;;;;;;;5000476;28;20178;-79
2021/05/12 10:25:27;;;;;;;7.60;6.70;;;;;;;;;;5006433;28;20182;-81
2021/05/12 10:27:54;;;;;;;7.63;6.20;;;;;;;;;;4995092;28;20530;-80
2021/05/12 10:30:20;;;;;;;6.37;5.77;;;;;;;;;;5001531;28;20179;-80
2021/05/12 10:32:50;;;;;;;9.63;6.37;;;;;;;;;;4994021;28;20183;-80
2021/05/12 10:35:17;;;;;;;5.70;5.00;;;;;;;;;;5022417;28;20299;-81
2021/05/12 10:37:44;;;;;;;8.93;5.67;;;;;;;;;;5009335;28;20217;-80
2021/05/12 10:40:20;;;;;;;6.83;5.87;;;;;;;;;;5009467;28;20269;-80
2021/05/12 10:45:42;;;;;;;7.97;5.03;;;;;;;;;;5013922;28;20356;-81
2021/05/12 10:48:09;;;;;;;9.17;6.93;;;;;;;;;;5032147;28;20225;-84
2021/05/12 10:50:44;;;;;;;8.60;5.57;;;;;;;;;;5019457;28;20193;-83
2021/05/12 10:53:21;;;;;;;6.73;4.90;;;;;;;;;;5016087;28;20296;-83
2021/05/12 10:55:56;;;;;;;7.53;4.93;;;;;;;;;;5035495;28;20655;-82
2021/05/12 10:58:23;;;;;;;9.40;4.97;;;;;;;;;;5016404;28;20241;-84
2021/05/12 11:00:58;;;;;;;6.80;4.40;;;;;;;;;;5021056;28;20558;-84
2021/05/12 11:03:25;;;;;;;5.33;4.30;;;;;;;;;;5017244;28;20197;-83
2021/05/12 11:05:57;;;;;;;4.83;3.90;;;;;;;;;;5012772;28;20332;-82
2021/05/12 11:08:23;;;;;;;5.60;3.90;;;;;;;;;;5027060;28;20266;-83
2021/05/12 11:10:53;;;;;;;3.97;3.30;;;;;;;;;;5027187;28;20261;-82
2021/05/12 11:13:25;;;;;;;6.60;4.40;;;;;;;;;;5015165;28;20222;-82
2021/05/12 11:15:58;;;;;;;6.23;3.97;;;;;;;;;;5015502;28;20252;-83
2021/05/12 11:18:40;;;;;;;18.70;5.20;;;;;;;;;;5016682;28;20187;-83
2021/05/12 11:21:39;;;;;;;21.27;4.33;;;;;;;;;;5009045;28;20190;-81
2021/05/12 11:24:10;;;;;;;10.03;4.00;;;;;;;;;;5012327;28;20179;-81
2021/05/12 11:27:17;;;;;;;5.93;3.67;;;;;;;;;;5015120;28;20220;-82
2021/05/12 11:32:14;;;;;;;8.93;3.70;;;;;;;;;;5017275;28;20197;-83
2021/05/12 11:34:41;;;;;;;4.23;2.60;;;;;;;;;;5015994;28;20178;-83
2021/05/12 11:37:23;;;;;;;5.07;3.30;;;;;;;;;;5012860;28;20226;-82
2021/05/12 11:39:50;;;;;;;6.23;3.37;;;;;;;;;;5024877;28;20217;-80
2021/05/12 11:42:25;;;;;;;4.63;3.33;;;;;;;;;;5018458;28;20190;-79
2021/05/12 11:45:02;;;;;;;6.83;3.67;;;;;;;;;;5010058;28;20321;-81
2021/05/12 11:47:29;;;;;;;6.47;3.00;;;;;;;;;;5014354;28;20178;-81
2021/05/12 11:49:55;;;;;;;6.47;2.83;;;;;;;;;;5018752;28;20181;-81
2021/05/12 11:52:28;;;;;;;4.27;2.90;;;;;;;;;;5017574;28;20183;-81
2021/05/12 11:54:54;;;;;;;5.40;3.40;;;;;;;;;;5001266;28;20560;-82
2021/05/12 11:57:20;;;;;;;5.87;2.90;;;;;;;;;;5011309;28;20186;-82
2021/05/12 11:59:46;;;;;;;4.87;2.93;;;;;;;;;;5011041;28;20207;-82
2021/05/12 12:02:13;;;;;;;5.95;3.20;;;;;;;;;;5022704;28;20502;-82
2021/05/12 12:04:47;;;;;;;7.57;3.27;;;;;;;;;;5012600;28;20179;-82
2021/05/12 12:07:13;;;;;;;4.67;2.87;;;;;;;;;;5012454;28;20174;-82
2021/05/12 12:09:39;;;;;;;5.13;2.77;;;;;;;;;;5011599;28;20185;-81
2021/05/12 12:12:06;;;;;;;5.67;2.67;;;;;;;;;;5020530;28;20198;-83
2021/05/12 12:14:33;;;;;;;4.50;2.73;;;;;;;;;;4999770;28;20195;-83
2021/05/12 12:16:59;;;;;;;6.20;2.63;;;;;;;;;;5010283;28;20570;-82
2021/05/12 12:19:25;;;;;;;4.10;2.27;;;;;;;;;;5015221;28;20213;-82
2021/05/12 12:21:53;;;;;;;6.17;2.17;;;;;;;;;;5018811;28;20196;-82
2021/05/12 12:24:22;;;;;;;4.20;2.23;;;;;;;;;;5028357;28;20290;-82
2021/05/12 12:26:56;;;;;;;2.20;2.00;;;;;;;;;;5009903;28;20179;-81
2021/05/12 12:29:22;;;;;;;4.87;2.57;;;;;;;;;;5011715;28;20194;-82
2021/05/12 12:31:50;;;;;;;3.00;1.80;;;;;;;;;;5010515;28;20517;-81
2021/05/12 12:34:20;;;;;;;4.00;2.40;;;;;;;;;;5006859;28;20749;-81
2021/05/12 12:36:46;;;;;;;5.20;2.50;;;;;;;;;;5024125;28;20324;-82
2021/05/12 12:39:31;;;;;;;2.97;1.80;;;;;;;;;;5031958;28;20682;-82
2021/05/12 12:45:02;;;;;;;4.78;2.45;;;;;;;;;;5026725;28;20411;-82
2021/05/12 12:47:28;;;;;;;3.90;2.33;;;;;;;;;;5018815;28;20177;-83
2021/05/12 12:49:54;;;;;;;3.23;2.20;;;;;;;;;;5028340;28;20190;-82
2021/05/12 12:52:21;;;;;;;4.93;2.20;;;;;;;;;;5011576;28;20282;-82
2021/05/12 12:54:50;;;;;;;3.93;2.00;;;;;;;;;;5028193;28;20195;-82
2021/05/12 12:57:20;;;;;;;3.27;2.43;;;;;;;;;;5027934;28;20261;-82
2021/05/12 13:00:02;;;;;;;3.63;2.40;;;;;;;;;;5029442;28;20198;-82
2021/05/12 13:02:28;;;;;;;2.97;2.10;;;;;;;;;;5013366;28;20494;-82
2021/05/12 13:05:10;;;;;;;4.83;1.77;;;;;;;;;;5030391;28;20170;-82
2021/05/12 13:07:36;;;;;;;2.97;2.00;;;;;;;;;;5010659;28;20606;-82
2021/05/12 13:10:21;;;;;;;3.43;1.90;;;;;;;;;;5019310;28;20182;-82
2021/05/12 13:12:47;;;;;;;2.70;2.10;;;;;;;;;;5015708;28;20635;-82
2021/05/12 13:15:25;;;;;;;1.60;1.50;;;;;;;;;;5022577;28;20629;-82
2021/05/12 13:18:09;;;;;;;2.00;1.73;;;;;;;;;;5004760;28;20539;-83
2021/05/12 13:20:40;;;;;;;2.00;1.80;;;;;;;;;;5024790;28;20202;-83
2021/05/12 13:23:07;;;;;;;5.90;2.07;;;;;;;;;;5031432;28;20178;-83
2021/05/12 13:25:34;;;;;;;2.83;1.93;;;;;;;;;;5024787;28;20186;-82
2021/05/12 13:28:00;;;;;;;3.47;1.70;;;;;;;;;;5006269;28;20322;-82
2021/05/12 13:30:26;;;;;;;3.57;2.20;;;;;;;;;;5033004;28;20201;-82
2021/05/12 13:32:53;;;;;;;2.43;1.80;;;;;;;;;;5031052;28;20191;-82
2021/05/12 13:35:19;;;;;;;3.03;1.80;;;;;;;;;;5032306;28;20235;-82
2021/05/12 13:37:48;;;;;;;2.17;1.50;;;;;;;;;;5030167;28;20236;-82
2021/05/12 13:40:14;;;;;;;2.10;1.57;;;;;;;;;;5010224;28;20659;-82
2021/05/12 13:42:41;;;;;;;3.33;1.97;;;;;;;;;;5024131;28;20173;-83
2021/05/12 13:45:10;;;;;;;3.27;2.10;;;;;;;;;;5014273;28;20213;-84
2021/05/12 13:47:36;;;;;;;3.93;2.10;;;;;;;;;;5014252;28;20197;-82
2021/05/12 13:50:03;;;;;;;2.00;1.80;;;;;;;;;;5029382;28;20283;-82
2021/05/12 13:52:36;;;;;;;3.87;2.27;;;;;;;;;;5030165;28;20688;-82
2021/05/12 13:55:07;;;;;;;3.57;1.80;;;;;;;;;;5029800;28;20682;-82
2021/05/12 14:03:06;;;;;;;4.07;3.67;;;;;;;;;;5026689;28;20211;-82
2021/05/12 14:05:37;;;;;;;3.43;2.17;;;;;;;;;;5036089;28;20170;-82
2021/05/12 14:08:03;;;;;;;3.23;2.47;;;;;;;;;;5040273;28;20190;-82
2021/05/12 14:10:35;;;;;;;2.93;2.60;;;;;;;;;;5014863;28;20182;-83
2021/05/12 14:18:20;;;;;;;4.23;2.23;;;;;;;;;;5020814;28;20241;-82
2021/05/12 14:20:46;;;;;;;3.40;2.40;;;;;;;;;;5030399;28;20218;-82
2021/05/12 14:23:12;;;;;;;4.00;2.63;;;;;;;;;;5025218;28;20181;-83
2021/05/12 14:25:38;;;;;;;3.40;2.77;;;;;;;;;;5028990;28;20179;-82
2021/05/12 14:28:05;;;;;;;5.50;2.83;;;;;;;;;;5018900;28;20186;-84
2021/05/12 14:30:37;;;;;;;5.17;3.43;;;;;;;;;;5011388;28;20220;-83
2021/05/12 14:33:04;;;;;;;3.47;3.00;;;;;;;;;;5011263;28;20261;-83
2021/05/12 14:35:30;;;;;;;4.83;2.53;;;;;;;;;;5016541;28;20178;-83
2021/05/12 14:37:56;;;;;;;3.90;2.90;;;;;;;;;;5033172;28;20221;-83
2021/05/12 14:40:22;;;;;;;3.60;2.20;;;;;;;;;;5039543;28;20208;-83
2021/05/12 14:42:48;;;;;;;4.63;2.63;;;;;;;;;;5018415;28;20238;-84
2021/05/12 14:45:14;;;;;;;4.23;2.43;;;;;;;;;;5011319;28;20201;-83
2021/05/12 14:47:40;;;;;;;4.23;2.63;;;;;;;;;;5022280;28;20811;-82
2021/05/12 14:50:07;;;;;;;2.67;2.43;;;;;;;;;;5026774;28;20630;-83
2021/05/12 15:00:07;;;;;;;3.80;2.73;;;;;;;;;;5031308;28;20209;-83
2021/05/12 15:02:41;;;;;;;2.63;2.17;;;;;;;;;;5014553;28;20182;-83
2021/05/12 15:07:51;;;;;;;5.30;2.37;;;;;;;;;;5031439;28;20172;-83
2021/05/12 15:10:17;;;;;;;4.57;2.60;;;;;;;;;;5031436;28;20261;-83